createdAt,value
2023-04-28T00:00:11.822Z,6.80
2023-04-28T00:02:39.871Z,6.80
2023-04-28T00:05:08.998Z,6.80
2023-04-28T00:07:38.429Z,6.80
2023-04-28T00:10:07.908Z,6.80
2023-04-28T00:12:35.837Z,6.70
2023-04-28T00:15:04.034Z,6.80
2023-04-28T00:17:32.048Z,6.70
2023-04-28T00:20:00.090Z,6.80
2023-04-28T00:22:28.034Z,6.90
2023-04-28T00:24:57.233Z,6.90
2023-04-28T00:27:25.149Z,7.00
2023-04-28T00:29:53.334Z,6.90
2023-04-28T00:32:21.440Z,6.80
2023-04-28T00:34:49.327Z,6.70
2023-04-28T00:37:17.183Z,6.70
2023-04-28T00:39:47.000Z,6.70
2023-04-28T00:42:17.199Z,6.80
2023-04-28T00:44:45.149Z,6.70
2023-04-28T00:47:13.062Z,6.70
2023-04-28T00:49:41.081Z,6.60
2023-04-28T00:52:08.970Z,6.70
2023-04-28T00:54:37.546Z,6.20
2023-04-28T00:57:05.695Z,6.70
2023-04-28T00:59:36.592Z,6.70
2023-04-28T01:02:06.458Z,6.70
2023-04-28T01:04:36.125Z,6.70
2023-04-28T01:07:04.851Z,6.80
2023-04-28T01:09:32.738Z,6.70
2023-04-28T01:12:00.917Z,6.80
2023-04-28T01:14:44.168Z,6.80
2023-04-28T01:17:12.887Z,6.80
2023-04-28T01:19:41.247Z,6.80
2023-04-28T01:22:10.612Z,6.80
2023-04-28T01:24:40.102Z,6.90
2023-04-28T01:27:09.119Z,6.90
2023-04-28T01:29:39.202Z,7.00
2023-04-28T01:32:07.238Z,7.20
2023-04-28T01:34:35.612Z,7.30
2023-04-28T01:37:06.917Z,7.30
2023-04-28T01:39:35.022Z,7.20
2023-04-28T01:42:06.425Z,7.30
2023-04-28T01:44:35.047Z,7.30
2023-04-28T01:47:02.907Z,7.40
2023-04-28T01:49:30.780Z,7.40
2023-04-28T01:51:58.682Z,7.40
2023-04-28T01:54:27.443Z,7.40
2023-04-28T01:56:55.411Z,7.50
2023-04-28T01:59:24.782Z,7.60
2023-04-28T02:01:52.753Z,7.60
2023-04-28T02:04:20.757Z,7.50
2023-04-28T02:06:49.037Z,7.50
2023-04-28T02:09:16.948Z,7.50
2023-04-28T02:11:45.285Z,7.50
2023-04-28T02:14:13.255Z,7.40
2023-04-28T02:16:42.490Z,7.50
2023-04-28T02:19:12.525Z,7.50
2023-04-28T02:21:40.388Z,7.50
2023-04-28T02:24:09.471Z,7.50
2023-04-28T02:26:37.354Z,7.50
2023-04-28T02:29:05.270Z,7.60
2023-04-28T02:31:33.981Z,7.60
2023-04-28T02:34:03.225Z,7.60
2023-04-28T02:36:32.451Z,7.70
2023-04-28T02:39:00.361Z,7.80
2023-04-28T02:41:31.015Z,7.80
2023-04-28T02:43:59.010Z,7.80
2023-04-28T02:46:26.933Z,7.80
2023-04-28T02:48:54.831Z,7.70
2023-04-28T02:51:24.377Z,7.70
2023-04-28T02:53:52.387Z,7.80
2023-04-28T02:56:20.487Z,7.80
2023-04-28T02:58:48.384Z,7.80
2023-04-28T03:01:16.733Z,7.70
2023-04-28T03:03:44.821Z,7.60
2023-04-28T03:06:13.259Z,7.60
2023-04-28T03:08:42.674Z,7.50
2023-04-28T03:11:11.051Z,7.40
2023-04-28T03:13:39.293Z,7.30
2023-04-28T03:16:08.815Z,7.40
2023-04-28T03:18:36.713Z,7.40
2023-04-28T03:21:05.450Z,7.40
2023-04-28T03:23:33.338Z,7.30
2023-04-28T03:26:02.639Z,7.30
2023-04-28T03:28:30.621Z,7.30
2023-04-28T03:31:00.542Z,7.30
2023-04-28T03:33:28.446Z,7.30
2023-04-28T03:35:57.003Z,7.40
2023-04-28T03:38:24.902Z,7.40
2023-04-28T03:40:53.176Z,7.50
2023-04-28T03:43:41.045Z,7.40
2023-04-28T03:46:22.226Z,7.30
2023-04-28T03:48:50.653Z,7.30
2023-04-28T03:51:20.712Z,7.30
2023-04-28T03:53:48.977Z,7.30
2023-04-28T03:56:17.038Z,7.30
2023-04-28T03:58:46.314Z,7.20
2023-04-28T04:01:14.554Z,7.20
2023-04-28T04:03:42.911Z,7.20
2023-04-28T04:06:11.033Z,7.30
2023-04-28T04:08:39.344Z,7.30
2023-04-28T04:11:07.301Z,7.10
2023-04-28T04:13:35.721Z,6.90
2023-04-28T04:16:09.480Z,6.70
2023-04-28T04:18:37.889Z,6.70
2023-04-28T04:21:21.199Z,6.60
2023-04-28T04:23:51.467Z,6.70
2023-04-28T04:26:19.444Z,6.70
2023-04-28T04:28:49.574Z,6.70
2023-04-28T04:31:19.473Z,6.70
2023-04-28T04:33:48.330Z,6.70
2023-04-28T04:36:17.014Z,6.90
2023-04-28T04:38:44.927Z,7.00
2023-04-28T04:41:20.946Z,7.00
2023-04-28T04:43:50.070Z,7.10
2023-04-28T04:46:20.142Z,7.30
2023-04-28T04:48:48.173Z,7.40
2023-04-28T04:51:16.170Z,7.60
2023-04-28T04:53:44.087Z,7.80
2023-04-28T04:56:12.193Z,8.20
2023-04-28T04:58:40.263Z,8.70
2023-04-28T05:01:27.216Z,9.20
2023-04-28T05:03:55.302Z,9.60
2023-04-28T05:06:23.793Z,9.50
2023-04-28T05:08:51.809Z,9.30
2023-04-28T05:11:20.023Z,9.10
2023-04-28T05:13:48.175Z,9.00
2023-04-28T05:16:16.743Z,9.00
2023-04-28T05:19:01.166Z,9.00
2023-04-28T05:21:29.536Z,8.80
2023-04-28T05:23:57.433Z,8.60
2023-04-28T05:26:26.089Z,8.40
2023-04-28T05:28:56.711Z,8.30
2023-04-28T05:31:24.625Z,8.10
2023-04-28T05:33:53.467Z,8.00
2023-04-28T05:36:22.650Z,7.90
2023-04-28T05:38:51.379Z,7.90
2023-04-28T05:41:20.013Z,7.90
2023-04-28T05:43:50.943Z,7.90
2023-04-28T05:46:29.986Z,7.80
2023-04-28T05:49:00.519Z,7.60
2023-04-28T05:51:34.706Z,7.60
2023-04-28T05:54:03.444Z,7.70
2023-04-28T05:56:32.901Z,7.70
2023-04-28T05:59:04.138Z,7.80
2023-04-28T06:01:32.478Z,8.00
2023-04-28T06:04:01.680Z,8.10
2023-04-28T06:06:29.857Z,8.10
2023-04-28T06:08:59.241Z,8.10
2023-04-28T06:11:27.422Z,8.00
2023-04-28T06:13:55.811Z,7.90
2023-04-28T06:16:24.214Z,8.00
2023-04-28T06:18:53.264Z,8.00
2023-04-28T06:21:22.122Z,8.00
2023-04-28T06:23:50.004Z,7.90
2023-04-28T06:26:19.719Z,7.90
2023-04-28T06:28:47.683Z,7.80
2023-04-28T06:31:15.716Z,7.90
2023-04-28T06:33:46.373Z,8.80
2023-04-28T06:36:16.746Z,7.80
2023-04-28T06:38:45.135Z,7.70
2023-04-28T06:41:13.129Z,7.70
2023-04-28T06:43:45.025Z,7.70
2023-04-28T06:46:18.095Z,7.70
2023-04-28T06:48:46.025Z,7.80
2023-04-28T06:51:16.308Z,8.00
2023-04-28T06:53:44.570Z,8.00
2023-04-28T06:56:12.453Z,8.00
2023-04-28T06:58:40.492Z,8.00
2023-04-28T07:01:09.813Z,8.10
2023-04-28T07:03:38.934Z,8.10
2023-04-28T07:06:07.491Z,8.20
2023-04-28T07:08:36.438Z,8.60
2023-04-28T07:11:05.150Z,8.80
2023-04-28T07:13:33.264Z,8.70
2023-04-28T07:16:01.365Z,8.90
2023-04-28T07:18:30.624Z,9.20
2023-04-28T07:20:58.823Z,9.30
2023-04-28T07:23:26.752Z,9.40
2023-04-28T07:25:54.836Z,9.30
2023-04-28T07:28:23.028Z,9.20
2023-04-28T07:30:51.227Z,9.00
2023-04-28T07:33:19.192Z,9.00
2023-04-28T07:35:49.481Z,9.00
2023-04-28T07:38:18.453Z,9.00
2023-04-28T07:40:46.713Z,9.10
2023-04-28T07:43:14.775Z,9.50
2023-04-28T07:45:45.579Z,9.80
2023-04-28T07:48:13.750Z,9.90
2023-04-28T07:50:41.694Z,9.80
2023-04-28T07:53:11.408Z,9.90
2023-04-28T07:55:41.882Z,10.40
2023-04-28T07:58:10.510Z,10.70
2023-04-28T08:00:40.962Z,11.00
2023-04-28T08:03:09.366Z,11.00
2023-04-28T08:05:37.633Z,10.80
2023-04-28T08:08:06.102Z,10.90
2023-04-28T08:10:35.380Z,10.90
2023-04-28T08:13:03.528Z,10.70
2023-04-28T08:15:31.887Z,10.60
2023-04-28T08:18:00.018Z,10.70
2023-04-28T08:20:27.991Z,10.90
2023-04-28T08:22:55.853Z,10.80
2023-04-28T08:25:24.061Z,10.90
2023-04-28T08:27:55.353Z,11.10
2023-04-28T08:30:24.785Z,11.10
2023-04-28T08:32:53.128Z,11.00
2023-04-28T08:35:21.074Z,11.00
2023-04-28T08:37:49.671Z,11.20
2023-04-28T08:40:18.232Z,10.90
2023-04-28T08:42:46.749Z,10.70
2023-04-28T08:45:16.644Z,10.60
2023-04-28T08:47:47.580Z,10.60
2023-04-28T08:50:17.098Z,10.90
2023-04-28T08:52:45.070Z,11.00
2023-04-28T08:55:13.898Z,11.10
2023-04-28T08:57:45.847Z,11.30
2023-04-28T09:00:16.445Z,11.40
2023-04-28T09:02:44.701Z,11.60
2023-04-28T09:05:14.639Z,11.50
2023-04-28T09:07:46.325Z,11.50
2023-04-28T09:10:23.069Z,11.60
2023-04-28T09:12:55.119Z,11.90
2023-04-28T09:15:34.434Z,12.10
2023-04-28T09:18:04.088Z,12.10
2023-04-28T09:20:34.133Z,12.00
2023-04-28T09:23:17.449Z,12.10
2023-04-28T09:26:06.450Z,12.40
2023-04-28T09:28:36.686Z,12.30
2023-04-28T09:31:06.225Z,12.20
2023-04-28T09:33:34.337Z,12.00
2023-04-28T09:36:02.262Z,11.80
2023-04-28T09:38:30.395Z,11.70
2023-04-28T09:41:01.339Z,11.60
2023-04-28T09:43:32.283Z,11.60
2023-04-28T09:46:03.460Z,11.70
2023-04-28T09:48:35.502Z,11.80
2023-04-28T09:51:05.989Z,11.80
2023-04-28T09:53:35.536Z,11.90
2023-04-28T09:56:06.416Z,11.80
2023-04-28T09:58:41.284Z,11.60
2023-04-28T10:01:12.720Z,11.60
2023-04-28T10:03:45.300Z,11.60
2023-04-28T10:06:13.448Z,11.80
2023-04-28T10:08:41.954Z,11.90
2023-04-28T10:11:10.899Z,12.10
2023-04-28T10:13:39.361Z,12.20
2023-04-28T10:16:09.318Z,12.30
2023-04-28T10:18:38.996Z,12.20
2023-04-28T10:21:09.489Z,12.00
2023-04-28T10:24:07.941Z,11.90
2023-04-28T10:27:09.253Z,11.90
2023-04-28T10:29:37.999Z,12.00
2023-04-28T10:32:28.614Z,11.90
2023-04-28T10:35:43.207Z,11.90
2023-04-28T10:38:14.745Z,11.90
2023-04-28T10:40:44.504Z,11.90
2023-04-28T10:43:13.817Z,11.90
2023-04-28T10:46:06.129Z,11.90
2023-04-28T10:49:08.183Z,11.90
2023-04-28T10:51:37.661Z,12.10
2023-04-28T10:54:20.270Z,12.60
2023-04-28T10:57:20.549Z,13.00
2023-04-28T10:59:50.251Z,12.90
2023-04-28T11:02:44.782Z,12.90
2023-04-28T11:05:18.981Z,12.80
2023-04-28T11:08:35.185Z,12.60
2023-04-28T11:11:28.092Z,12.60
2023-04-28T11:14:17.315Z,12.70
2023-04-28T11:16:53.677Z,12.80
2023-04-28T11:19:24.587Z,12.90
2023-04-28T11:21:54.960Z,12.70
2023-04-28T11:24:25.480Z,12.90
2023-04-28T11:26:53.753Z,13.00
2023-04-28T11:29:34.096Z,12.80
2023-04-28T11:32:05.027Z,12.60
2023-04-28T11:34:33.507Z,12.70
2023-04-28T11:37:01.863Z,12.80
2023-04-28T11:39:32.791Z,12.80
2023-04-28T11:42:03.148Z,12.60
2023-04-28T11:44:32.889Z,12.70
2023-04-28T11:47:04.959Z,12.70
2023-04-28T11:49:43.485Z,12.80
2023-04-28T11:52:13.227Z,12.70
2023-04-28T11:54:43.317Z,12.60
2023-04-28T11:57:20.102Z,12.80
2023-04-28T11:59:49.688Z,12.80
2023-04-28T12:02:29.218Z,13.00
2023-04-28T12:04:57.703Z,13.10
2023-04-28T12:07:26.165Z,13.20
2023-04-28T12:10:14.200Z,13.20
2023-04-28T12:12:51.147Z,13.60
2023-04-28T12:15:21.880Z,13.80
2023-04-28T12:17:52.194Z,13.80
2023-04-28T12:20:36.816Z,13.60
2023-04-28T12:23:07.382Z,13.70
2023-04-28T12:25:44.481Z,14.10
2023-04-28T12:28:12.885Z,14.50
2023-04-28T12:30:42.494Z,14.70
2023-04-28T12:33:25.553Z,14.80
2023-04-28T12:35:54.890Z,14.40
2023-04-28T12:38:22.969Z,14.20
2023-04-28T12:40:50.928Z,14.30
2023-04-28T12:43:19.381Z,14.30
2023-04-28T12:45:47.697Z,14.50
2023-04-28T12:48:15.696Z,14.40
2023-04-28T12:50:45.274Z,14.10
2023-04-28T12:53:13.650Z,13.90
2023-04-28T12:55:42.144Z,13.80
2023-04-28T12:58:10.114Z,13.90
2023-04-28T13:00:38.298Z,14.10
2023-04-28T13:03:06.777Z,14.20
2023-04-28T13:05:35.229Z,14.20
2023-04-28T13:08:05.507Z,14.30
2023-04-28T13:10:33.398Z,14.30
2023-04-28T13:13:01.257Z,14.30
2023-04-28T13:15:30.106Z,14.40
2023-04-28T13:17:59.729Z,14.50
2023-04-28T13:20:27.827Z,14.50
2023-04-28T13:22:58.670Z,14.40
2023-04-28T13:25:27.950Z,14.30
2023-04-28T13:27:56.614Z,14.10
2023-04-28T13:30:24.561Z,14.00
2023-04-28T13:32:53.517Z,14.00
2023-04-28T13:35:22.401Z,13.90
2023-04-28T13:37:50.426Z,14.00
2023-04-28T13:40:19.104Z,14.00
2023-04-28T13:42:48.368Z,13.80
2023-04-28T13:45:17.845Z,13.80
2023-04-28T13:47:46.122Z,13.60
2023-04-28T13:50:14.434Z,13.50
2023-04-28T13:52:42.434Z,13.50
2023-04-28T13:55:11.028Z,13.60
2023-04-28T13:57:39.846Z,13.70
2023-04-28T14:00:11.495Z,13.90
2023-04-28T14:02:39.762Z,13.90
2023-04-28T14:05:09.311Z,13.80
2023-04-28T14:07:37.649Z,13.90
2023-04-28T14:10:06.240Z,14.00
2023-04-28T14:12:34.195Z,14.10
2023-04-28T14:15:02.159Z,14.00
2023-04-28T14:17:32.464Z,13.90
2023-04-28T14:20:01.404Z,13.90
2023-04-28T14:22:29.446Z,14.00
2023-04-28T14:24:59.436Z,14.10
2023-04-28T14:27:29.366Z,14.20
2023-04-28T14:29:57.656Z,14.40
2023-04-28T14:32:25.916Z,14.50
2023-04-28T14:34:55.149Z,14.40
2023-04-28T14:37:23.457Z,14.10
2023-04-28T14:39:51.466Z,13.80
2023-04-28T14:42:20.059Z,13.60
2023-04-28T14:44:48.350Z,13.30
2023-04-28T14:47:17.260Z,13.20
2023-04-28T14:49:45.359Z,13.10
2023-04-28T14:52:14.607Z,13.00
2023-04-28T14:54:43.266Z,13.10
2023-04-28T14:57:11.199Z,13.20
2023-04-28T14:59:39.101Z,13.10
2023-04-28T15:02:07.763Z,13.00
2023-04-28T15:04:36.025Z,12.80
2023-04-28T15:07:03.965Z,12.80
2023-04-28T15:09:33.274Z,12.70
2023-04-28T15:12:01.182Z,12.60
2023-04-28T15:14:29.078Z,12.60
2023-04-28T15:16:57.458Z,12.70
2023-04-28T15:19:25.872Z,12.80
2023-04-28T15:21:53.814Z,12.60
2023-04-28T15:24:22.020Z,12.50
2023-04-28T15:26:51.488Z,12.40
2023-04-28T15:29:19.833Z,11.90
2023-04-28T15:31:47.900Z,12.50
2023-04-28T15:34:15.969Z,12.50
2023-04-28T15:36:46.898Z,12.40
2023-04-28T15:39:16.154Z,12.50
2023-04-28T15:41:44.161Z,12.50
2023-04-28T15:44:13.396Z,12.50
2023-04-28T15:46:41.377Z,12.50
2023-04-28T15:49:09.944Z,12.70
2023-04-28T15:51:38.217Z,12.70
2023-04-28T15:54:06.172Z,12.80
2023-04-28T15:56:34.905Z,12.70
2023-04-28T15:59:03.226Z,12.80
2023-04-28T16:01:33.175Z,12.80
2023-04-28T16:04:01.393Z,12.80
2023-04-28T16:06:30.283Z,13.00
2023-04-28T16:08:58.182Z,13.10
2023-04-28T16:11:26.138Z,13.40
2023-04-28T16:13:54.074Z,13.50
2023-04-28T16:16:23.241Z,13.60
2023-04-28T16:18:52.468Z,13.60
2023-04-28T16:21:20.357Z,13.50
2023-04-28T16:23:48.283Z,13.50
2023-04-28T16:26:16.184Z,13.60
2023-04-28T16:28:44.450Z,13.60
2023-04-28T16:31:12.461Z,13.60
2023-04-28T16:33:40.434Z,13.60
2023-04-28T16:36:09.939Z,13.80
2023-04-28T16:38:38.713Z,13.90
2023-04-28T16:41:06.841Z,14.00
2023-04-28T16:43:36.187Z,14.00
2023-04-28T16:46:04.368Z,14.10
2023-04-28T16:48:32.369Z,14.10
2023-04-28T16:51:00.420Z,14.20
2023-04-28T16:53:29.655Z,14.20
2023-04-28T16:55:57.599Z,14.20
2023-04-28T16:58:26.164Z,14.30
2023-04-28T17:00:54.218Z,14.20
2023-04-28T17:03:22.335Z,14.10
2023-04-28T17:05:50.431Z,14.00
2023-04-28T17:08:18.395Z,13.90
2023-04-28T17:10:48.190Z,13.80
2023-04-28T17:13:16.093Z,13.60
2023-04-28T17:15:43.976Z,13.60
2023-04-28T17:18:11.831Z,13.60
2023-04-28T17:20:40.920Z,13.60
2023-04-28T17:23:08.781Z,13.70
2023-04-28T17:25:39.372Z,13.70
2023-04-28T17:28:08.686Z,13.70
2023-04-28T17:30:37.589Z,13.80
2023-04-28T17:33:06.092Z,13.70
2023-04-28T17:35:34.051Z,13.80
2023-04-28T17:38:02.324Z,13.80
2023-04-28T17:40:30.255Z,13.70
2023-04-28T17:42:58.443Z,13.60
2023-04-28T17:45:27.815Z,13.50
2023-04-28T17:47:57.586Z,13.50
2023-04-28T17:50:25.771Z,13.40
2023-04-28T17:52:54.203Z,13.40
2023-04-28T17:55:23.399Z,13.40
2023-04-28T17:57:52.251Z,13.30
2023-04-28T18:00:20.922Z,13.30
2023-04-28T18:02:52.391Z,13.30
2023-04-28T18:05:23.007Z,13.10
2023-04-28T18:07:50.942Z,13.10
2023-04-28T18:10:19.222Z,13.10
2023-04-28T18:12:47.414Z,13.20
2023-04-28T18:15:15.421Z,13.20
2023-04-28T18:17:43.444Z,12.90
2023-04-28T18:20:13.876Z,13.10
2023-04-28T18:22:42.156Z,13.00
2023-04-28T18:25:12.381Z,13.00
2023-04-28T18:27:45.312Z,13.00
2023-04-28T18:30:13.904Z,13.00
2023-04-28T18:32:42.211Z,13.00
2023-04-28T18:35:11.667Z,12.90
2023-04-28T18:37:39.651Z,12.80
2023-04-28T18:40:08.065Z,12.70
2023-04-28T18:42:36.802Z,12.50
2023-04-28T18:45:05.853Z,12.50
2023-04-28T18:47:33.847Z,12.40
2023-04-28T18:50:02.455Z,12.20
2023-04-28T18:52:32.871Z,12.30
2023-04-28T18:55:00.791Z,12.20
2023-04-28T18:57:28.762Z,12.20
2023-04-28T18:59:59.657Z,12.10
2023-04-28T19:02:27.762Z,12.10
2023-04-28T19:04:56.953Z,12.10
2023-04-28T19:07:25.023Z,12.00
2023-04-28T19:09:58.579Z,12.00
2023-04-28T19:12:29.180Z,12.10
2023-04-28T19:14:57.113Z,12.10
2023-04-28T19:17:25.558Z,12.10
2023-04-28T19:19:56.968Z,12.00
2023-04-28T19:22:33.192Z,12.00
2023-04-28T19:25:04.181Z,12.00
2023-04-28T19:27:34.448Z,11.90
2023-04-28T19:30:03.360Z,11.80
2023-04-28T19:32:31.796Z,11.80
2023-04-28T19:35:00.290Z,11.70
2023-04-28T19:37:28.360Z,11.70
2023-04-28T19:39:56.370Z,11.60
2023-04-28T19:42:25.886Z,11.60
2023-04-28T19:44:56.439Z,11.60
2023-04-28T19:47:24.780Z,11.70
2023-04-28T19:49:53.327Z,11.80
2023-04-28T19:52:22.466Z,11.80
2023-04-28T19:54:51.463Z,11.90
2023-04-28T19:57:20.314Z,11.90
2023-04-28T19:59:50.384Z,12.00
2023-04-28T20:02:20.947Z,11.90
2023-04-28T20:04:50.375Z,11.90
2023-04-28T20:07:18.563Z,11.90
2023-04-28T20:09:47.059Z,11.90
2023-04-28T20:12:15.158Z,11.90
2023-04-28T20:14:43.359Z,11.80
2023-04-28T20:17:12.564Z,11.80
2023-04-28T20:19:40.793Z,11.90
2023-04-28T20:22:09.018Z,11.90
2023-04-28T20:24:39.309Z,11.90
2023-04-28T20:27:07.338Z,11.90
2023-04-28T20:29:35.640Z,12.00
2023-04-28T20:32:04.332Z,12.00
2023-04-28T20:34:34.220Z,12.10
2023-04-28T20:37:03.433Z,12.10
2023-04-28T20:39:31.520Z,12.10
2023-04-28T20:42:00.667Z,12.10
2023-04-28T20:44:28.538Z,12.10
2023-04-28T20:46:56.477Z,12.10
2023-04-28T20:49:25.060Z,12.10
2023-04-28T20:51:55.399Z,12.00
2023-04-28T20:54:23.682Z,12.10
2023-04-28T20:56:51.560Z,12.10
2023-04-28T20:59:19.419Z,12.10
2023-04-28T21:01:47.657Z,12.10
2023-04-28T21:04:15.804Z,12.10
2023-04-28T21:06:43.816Z,12.00
2023-04-28T21:09:13.906Z,12.00
2023-04-28T21:11:42.475Z,11.90
2023-04-28T21:14:10.560Z,11.90
2023-04-28T21:16:38.783Z,11.80
2023-04-28T21:19:07.455Z,11.80
2023-04-28T21:21:35.379Z,11.80
2023-04-28T21:24:03.270Z,11.70
2023-04-28T21:26:32.521Z,11.80
2023-04-28T21:29:01.421Z,11.80
2023-04-28T21:31:30.474Z,11.80
2023-04-28T21:33:58.765Z,11.90
2023-04-28T21:36:26.818Z,12.00
2023-04-28T21:38:54.816Z,12.10
2023-04-28T21:41:22.714Z,12.20
2023-04-28T21:43:52.301Z,12.20
2023-04-28T21:46:20.202Z,12.30
2023-04-28T21:48:48.631Z,12.40
2023-04-28T21:51:16.773Z,12.40
2023-04-28T21:53:44.636Z,12.40
2023-04-28T21:56:12.513Z,12.50
2023-04-28T21:58:40.605Z,12.50
2023-04-28T22:01:10.295Z,12.60
2023-04-28T22:03:39.328Z,12.60
2023-04-28T22:06:07.440Z,12.60
2023-04-28T22:08:35.914Z,12.60
2023-04-28T22:11:04.032Z,12.50
2023-04-28T22:13:31.934Z,12.50
2023-04-28T22:16:01.676Z,12.50
2023-04-28T22:18:31.278Z,12.50
2023-04-28T22:21:01.020Z,12.50
2023-04-28T22:23:31.718Z,12.50
2023-04-28T22:26:00.035Z,12.50
2023-04-28T22:28:27.922Z,12.40
2023-04-28T22:30:56.168Z,12.40
2023-04-28T22:33:24.105Z,12.30
2023-04-28T22:35:53.337Z,12.30
2023-04-28T22:38:21.629Z,12.30
2023-04-28T22:40:49.489Z,12.30
2023-04-28T22:43:17.517Z,12.30
2023-04-28T22:45:46.271Z,12.30
2023-04-28T22:48:14.571Z,12.30
2023-04-28T22:50:42.427Z,12.30
2023-04-28T22:53:11.624Z,12.30
2023-04-28T22:55:39.484Z,12.30
2023-04-28T22:58:07.618Z,12.30
2023-04-28T23:00:36.563Z,12.30
2023-04-28T23:03:05.027Z,12.30
2023-04-28T23:05:33.214Z,12.30
2023-04-28T23:08:01.452Z,12.30
2023-04-28T23:10:30.649Z,12.30
2023-04-28T23:12:58.524Z,12.40
2023-04-28T23:15:26.397Z,12.40
2023-04-28T23:17:54.439Z,12.50
2023-04-28T23:20:22.708Z,12.50
2023-04-28T23:22:52.420Z,12.50
2023-04-28T23:25:20.279Z,12.60
2023-04-28T23:27:49.939Z,12.60
2023-04-28T23:30:17.887Z,12.50
2023-04-28T23:32:45.833Z,12.60
2023-04-28T23:35:13.968Z,12.50
2023-04-28T23:37:42.039Z,12.50
2023-04-28T23:40:11.650Z,12.50
2023-04-28T23:42:39.519Z,12.50
2023-04-28T23:45:10.857Z,12.50
2023-04-28T23:47:38.853Z,12.50
2023-04-28T23:50:09.632Z,12.50
2023-04-28T23:52:38.625Z,12.50
2023-04-28T23:55:10.589Z,12.50
2023-04-28T23:57:38.862Z,12.50
